Time;durP1;ratioP1;P1;durP2;ratioP2;P2;SDS_P1;SDS_P2;PMS_P1;PMS_P2;Temp;Humidity;BMP_temperature;BMP_pressure;BME280_temperature;BME280_humidity;BME280_pressure;Samples;Min_cycle;Max_cycle;Signal;HPM_P1;HPM_P2
2023/03/31 00:01:25;;;;;;;;;;;11.00;99.90;;;;;;5117376;27;20332;-36
2023/03/31 00:04:03;;;;;;;;;;;10.90;99.90;;;;;;5127699;27;20001;-36
2023/03/31 00:06:31;;;;;;;;;;;10.90;99.90;;;;;;5124624;27;19968;-35
2023/03/31 00:09:00;;;;;;;;;;;10.90;99.90;;;;;;5119812;27;19924;-35
2023/03/31 00:11:27;;;;;;;;;;;10.90;99.90;;;;;;5148654;27;19931;-36
2023/03/31 00:13:54;;;;;;;;;;;10.90;99.90;;;;;;5135167;27;19976;-35
2023/03/31 00:16:20;;;;;;;;;;;10.90;99.90;;;;;;5168219;27;19968;-35
2023/03/31 00:18:49;;;;;;;;;;;10.90;99.90;;;;;;5152246;27;19927;-35
2023/03/31 00:21:24;;;;;;;;;;;10.80;99.90;;;;;;5145982;27;20340;-35
2023/03/31 00:23:51;;;;;;;;;;;10.80;99.90;;;;;;5117352;27;19998;-35
2023/03/31 00:26:17;;;;;;;;;;;10.70;99.90;;;;;;5149804;27;19928;-35
2023/03/31 00:28:44;;;;;;;;;;;10.70;99.90;;;;;;5151137;27;19976;-36
2023/03/31 00:31:11;;;;;;;;;;;10.70;99.90;;;;;;5142972;27;20283;-36
2023/03/31 00:33:37;;;;;;;;;;;10.60;99.90;;;;;;5148722;27;19991;-35
2023/03/31 00:36:04;;;;;;;;;;;10.60;99.90;;;;;;5122737;27;19966;-36
2023/03/31 00:38:33;;;;;;;;;;;10.60;99.90;;;;;;5138286;27;19923;-35
2023/03/31 00:40:59;;;;;;;;;;;10.60;99.90;;;;;;5137345;27;19987;-36
2023/03/31 00:43:29;;;;;;;;;;;10.50;99.90;;;;;;5149766;27;19923;-35
2023/03/31 00:45:58;;;;;;;;;;;10.50;99.90;;;;;;5171199;27;19966;-36
2023/03/31 00:48:26;;;;;;;;;;;10.40;99.90;;;;;;5132273;27;19945;-35
2023/03/31 00:50:53;;;;;;;;;;;10.40;99.90;;;;;;5137028;27;19984;-36
2023/03/31 00:53:21;;;;;;;;;;;10.30;99.90;;;;;;5133773;27;19931;-35
2023/03/31 00:55:49;;;;;;;;;;;10.30;99.90;;;;;;5118751;27;20031;-35
2023/03/31 00:58:19;;;;;;;;;;;10.30;99.90;;;;;;5139316;27;19932;-35
2023/03/31 01:00:46;;;;;;;;;;;10.30;99.90;;;;;;5136509;27;19927;-36
2023/03/31 01:03:13;;;;;;;;;;;10.20;99.90;;;;;;5135452;27;19923;-36
2023/03/31 01:05:40;;;;;;;;;;;10.20;99.90;;;;;;5148388;27;20489;-36
2023/03/31 01:08:07;;;;;;;;;;;10.10;99.90;;;;;;5153033;27;19930;-36
2023/03/31 01:10:37;;;;;;;;;;;10.10;99.90;;;;;;5135435;27;19960;-35
2023/03/31 01:13:05;;;;;;;;;;;10.10;99.90;;;;;;5134399;27;19931;-34
2023/03/31 01:15:32;;;;;;;;;;;10.10;99.90;;;;;;5122846;27;20439;-36
2023/03/31 01:17:59;;;;;;;;;;;10.10;99.90;;;;;;5139189;27;19924;-35
2023/03/31 01:20:28;;;;;;;;;;;10.10;99.90;;;;;;5140221;27;19923;-36
2023/03/31 01:23:08;;;;;;;;;;;10.10;99.90;;;;;;5135666;27;20278;-35
2023/03/31 01:25:43;;;;;;;;;;;10.00;99.90;;;;;;5131082;27;19923;-37
2023/03/31 01:28:23;;;;;;;;;;;10.00;99.90;;;;;;5142181;27;19926;-36
2023/03/31 01:30:58;;;;;;;;;;;10.00;99.90;;;;;;5128247;27;20332;-35
2023/03/31 01:33:29;;;;;;;;;;;9.90;99.90;;;;;;5131470;27;19975;-36
2023/03/31 01:36:15;;;;;;;;;;;9.90;99.90;;;;;;5152959;27;19930;-35
2023/03/31 01:38:56;;;;;;;;;;;9.90;99.90;;;;;;5126350;27;20413;-36
2023/03/31 01:41:29;;;;;;;;;;;9.90;99.90;;;;;;5143149;27;19924;-36
2023/03/31 01:43:58;;;;;;;;;;;9.80;99.90;;;;;;5143012;27;19967;-35
2023/03/31 01:46:27;;;;;;;;;;;9.80;99.90;;;;;;5153348;27;20038;-35
2023/03/31 01:48:54;;;;;;;;;;;9.80;99.90;;;;;;5123096;27;20251;-35
2023/03/31 01:51:22;;;;;;;;;;;9.80;99.90;;;;;;5168976;27;19972;-35
2023/03/31 01:53:50;;;;;;;;;;;9.70;99.90;;;;;;5126403;27;19951;-35
2023/03/31 01:56:18;;;;;;;;;;;9.80;99.90;;;;;;5121701;27;19976;-36
2023/03/31 01:58:47;;;;;;;;;;;9.80;99.90;;;;;;5139780;27;19923;-35
2023/03/31 02:01:15;;;;;;;;;;;9.70;99.90;;;;;;5116539;27;20394;-35
2023/03/31 02:03:43;;;;;;;;;;;9.70;99.90;;;;;;5119004;27;19967;-35
2023/03/31 02:06:10;;;;;;;;;;;9.70;99.90;;;;;;5149827;27;19931;-35
2023/03/31 02:08:38;;;;;;;;;;;9.70;99.90;;;;;;5163190;27;19924;-35
2023/03/31 02:11:04;;;;;;;;;;;9.70;99.90;;;;;;5128117;27;19948;-35
2023/03/31 02:13:33;;;;;;;;;;;9.70;99.90;;;;;;5151052;27;19991;-36
2023/03/31 02:16:03;;;;;;;;;;;9.70;99.90;;;;;;5166883;27;20388;-35
2023/03/31 02:18:32;;;;;;;;;;;9.70;99.90;;;;;;5140245;27;19928;-36
2023/03/31 02:20:58;;;;;;;;;;;9.70;99.90;;;;;;5135219;27;20388;-36
2023/03/31 02:23:28;;;;;;;;;;;9.70;99.90;;;;;;5133097;27;19946;-36
2023/03/31 02:25:55;;;;;;;;;;;9.70;99.90;;;;;;5141891;27;20282;-35
2023/03/31 02:28:23;;;;;;;;;;;9.70;99.90;;;;;;5126892;27;19984;-36
2023/03/31 02:30:51;;;;;;;;;;;9.70;99.90;;;;;;5126990;27;20355;-35
2023/03/31 02:33:19;;;;;;;;;;;9.70;99.90;;;;;;5130427;27;19930;-35
2023/03/31 02:35:46;;;;;;;;;;;9.70;99.90;;;;;;5117758;27;20043;-36
2023/03/31 02:38:12;;;;;;;;;;;9.70;99.90;;;;;;5133976;27;19992;-35
2023/03/31 02:40:40;;;;;;;;;;;9.70;99.90;;;;;;5150412;27;20385;-35
2023/03/31 02:43:07;;;;;;;;;;;9.80;99.90;;;;;;5134098;27;20352;-35
2023/03/31 02:45:37;;;;;;;;;;;9.80;99.90;;;;;;5146836;27;19923;-35
2023/03/31 02:48:03;;;;;;;;;;;9.80;99.90;;;;;;5123742;27;19927;-36
2023/03/31 02:50:33;;;;;;;;;;;9.80;99.90;;;;;;5136767;27;19927;-35
2023/03/31 02:52:59;;;;;;;;;;;9.80;99.90;;;;;;5136233;27;19923;-36
2023/03/31 02:55:38;;;;;;;;;;;9.80;99.90;;;;;;5145548;27;19927;-36
2023/03/31 02:58:38;;;;;;;;;;;9.80;99.90;;;;;;5116942;27;19924;-35
2023/03/31 03:01:11;;;;;;;;;;;9.80;99.90;;;;;;5115791;27;19930;-35
2023/03/31 03:03:41;;;;;;;;;;;9.90;99.90;;;;;;5115298;27;20272;-35
2023/03/31 03:06:12;;;;;;;;;;;9.90;99.90;;;;;;5164558;27;20334;-35
2023/03/31 03:08:42;;;;;;;;;;;9.90;99.90;;;;;;5128869;27;19999;-35
2023/03/31 03:11:16;;;;;;;;;;;9.90;99.90;;;;;;5134440;27;19999;-35
2023/03/31 03:13:45;;;;;;;;;;;9.90;99.90;;;;;;5154159;27;19923;-35
2023/03/31 03:16:12;;;;;;;;;;;10.00;99.90;;;;;;5151019;27;19930;-35
2023/03/31 03:18:39;;;;;;;;;;;10.00;99.90;;;;;;5127581;27;20367;-35
2023/03/31 03:21:06;;;;;;;;;;;10.00;99.90;;;;;;5141482;27;20021;-36
2023/03/31 03:23:34;;;;;;;;;;;10.00;99.90;;;;;;5116923;27;19923;-35
2023/03/31 03:26:00;;;;;;;;;;;10.00;99.90;;;;;;5152186;27;19931;-35
2023/03/31 03:28:27;;;;;;;;;;;10.00;99.90;;;;;;5149122;27;19927;-36
2023/03/31 03:30:54;;;;;;;;;;;10.10;99.90;;;;;;5146904;27;20054;-36
2023/03/31 03:33:23;;;;;;;;;;;10.10;99.90;;;;;;5147227;27;20388;-35
2023/03/31 03:35:50;;;;;;;;;;;10.10;99.90;;;;;;5160451;27;19930;-36
2023/03/31 03:38:17;;;;;;;;;;;10.10;99.90;;;;;;5153059;27;19923;-36
2023/03/31 03:40:45;;;;;;;;;;;10.10;99.90;;;;;;5135394;27;19923;-36
2023/03/31 03:43:12;;;;;;;;;;;10.10;99.90;;;;;;5118218;27;20412;-36
2023/03/31 03:45:38;;;;;;;;;;;10.10;99.90;;;;;;5114091;27;19992;-37
2023/03/31 03:48:05;;;;;;;;;;;10.10;99.90;;;;;;5114360;27;19923;-37
2023/03/31 03:50:35;;;;;;;;;;;10.10;99.90;;;;;;5133642;27;19923;-37
2023/03/31 03:53:02;;;;;;;;;;;10.10;99.90;;;;;;5133632;27;19984;-37
2023/03/31 03:55:28;;;;;;;;;;;10.10;99.90;;;;;;5152011;27;19930;-37
2023/03/31 03:57:56;;;;;;;;;;;10.10;99.90;;;;;;5161744;27;19923;-37
2023/03/31 04:00:23;;;;;;;;;;;10.10;99.90;;;;;;5123962;27;19931;-37
2023/03/31 04:02:50;;;;;;;;;;;10.10;99.90;;;;;;5145794;27;19967;-37
2023/03/31 04:05:16;;;;;;;;;;;10.10;99.90;;;;;;5143524;27;19923;-37
2023/03/31 04:07:43;;;;;;;;;;;10.10;99.90;;;;;;5153851;27;20426;-37
2023/03/31 04:10:10;;;;;;;;;;;10.10;99.90;;;;;;5152411;27;20454;-36
2023/03/31 04:12:36;;;;;;;;;;;10.10;99.90;;;;;;5121646;27;19923;-36
2023/03/31 04:15:05;;;;;;;;;;;10.10;99.90;;;;;;5155606;27;19923;-37
2023/03/31 04:17:33;;;;;;;;;;;10.10;99.90;;;;;;5154657;27;19924;-37
2023/03/31 04:20:04;;;;;;;;;;;10.10;99.90;;;;;;5162430;27;19923;-38
2023/03/31 04:22:34;;;;;;;;;;;10.10;99.90;;;;;;5155582;27;19927;-37
2023/03/31 04:25:01;;;;;;;;;;;10.10;99.90;;;;;;5171093;27;19931;-36
2023/03/31 04:27:28;;;;;;;;;;;10.10;99.90;;;;;;5125986;27;20406;-37
2023/03/31 04:29:54;;;;;;;;;;;10.10;99.90;;;;;;5167085;27;20340;-36
2023/03/31 04:32:23;;;;;;;;;;;10.10;99.90;;;;;;5143403;27;20335;-37
2023/03/31 04:34:50;;;;;;;;;;;10.10;99.90;;;;;;5152673;27;19967;-36
2023/03/31 04:37:17;;;;;;;;;;;10.10;99.90;;;;;;5130242;27;20310;-36
2023/03/31 04:39:45;;;;;;;;;;;10.10;99.90;;;;;;5131486;27;19924;-37
2023/03/31 04:42:12;;;;;;;;;;;10.10;99.90;;;;;;5150706;27;19932;-37
2023/03/31 04:44:38;;;;;;;;;;;10.10;99.90;;;;;;5136770;27;19930;-37
2023/03/31 04:47:05;;;;;;;;;;;10.10;99.90;;;;;;5118024;27;20020;-36
2023/03/31 04:49:34;;;;;;;;;;;10.10;99.90;;;;;;5166892;27;19927;-37
2023/03/31 04:52:01;;;;;;;;;;;10.10;99.90;;;;;;5150436;27;20401;-37
2023/03/31 04:54:28;;;;;;;;;;;10.10;99.90;;;;;;5171683;27;19929;-37
2023/03/31 04:56:55;;;;;;;;;;;10.10;99.90;;;;;;5172236;27;19927;-37
2023/03/31 04:59:21;;;;;;;;;;;10.10;99.90;;;;;;5155584;27;19931;-36
2023/03/31 05:01:48;;;;;;;;;;;10.10;99.90;;;;;;5151417;27;19927;-37
2023/03/31 05:04:15;;;;;;;;;;;10.20;99.90;;;;;;5134825;27;19968;-37
2023/03/31 05:06:43;;;;;;;;;;;10.20;99.90;;;;;;5153493;27;19931;-37
2023/03/31 05:09:09;;;;;;;;;;;10.10;99.90;;;;;;5154749;27;19975;-37
2023/03/31 05:11:37;;;;;;;;;;;10.20;99.90;;;;;;5146522;27;19924;-37
2023/03/31 05:14:03;;;;;;;;;;;10.20;99.90;;;;;;5144162;27;19929;-37
2023/03/31 05:16:30;;;;;;;;;;;10.10;99.90;;;;;;5149168;27;20420;-38
2023/03/31 05:18:56;;;;;;;;;;;10.10;99.90;;;;;;5124490;27;20432;-38
2023/03/31 05:21:25;;;;;;;;;;;10.10;99.90;;;;;;5139849;27;20338;-38
2023/03/31 05:23:53;;;;;;;;;;;10.10;99.90;;;;;;5149932;27;19927;-38
2023/03/31 05:26:21;;;;;;;;;;;10.10;99.90;;;;;;5154459;27;19968;-38
2023/03/31 05:28:48;;;;;;;;;;;10.10;99.90;;;;;;5168598;27;20375;-39
2023/03/31 05:31:15;;;;;;;;;;;10.10;99.90;;;;;;5139292;27;19962;-38
2023/03/31 05:33:42;;;;;;;;;;;10.10;99.90;;;;;;5139820;27;19934;-38
2023/03/31 05:36:09;;;;;;;;;;;10.10;99.90;;;;;;5133702;27;19923;-39
2023/03/31 05:38:36;;;;;;;;;;;10.10;99.90;;;;;;5121827;27;19923;-38
2023/03/31 05:41:05;;;;;;;;;;;10.10;99.90;;;;;;5144013;27;19979;-38
2023/03/31 05:43:31;;;;;;;;;;;10.10;99.90;;;;;;5144251;27;19956;-38
2023/03/31 05:45:58;;;;;;;;;;;10.10;99.90;;;;;;5130246;27;19930;-38
2023/03/31 05:48:25;;;;;;;;;;;10.10;99.90;;;;;;5151086;27;20432;-38
2023/03/31 05:50:51;;;;;;;;;;;10.00;99.90;;;;;;5119213;27;19927;-38
2023/03/31 05:53:18;;;;;;;;;;;10.10;99.90;;;;;;5166504;27;19927;-38
2023/03/31 05:55:45;;;;;;;;;;;10.10;99.90;;;;;;5140228;27;19932;-38
2023/03/31 05:58:13;;;;;;;;;;;10.00;99.90;;;;;;5117068;27;20440;-38
2023/03/31 06:00:39;;;;;;;;;;;10.00;99.90;;;;;;5144227;27;19983;-38
2023/03/31 06:03:07;;;;;;;;;;;10.10;99.90;;;;;;5126546;27;19980;-38
2023/03/31 06:05:34;;;;;;;;;;;10.00;99.90;;;;;;5141847;27;19934;-38
2023/03/31 06:08:01;;;;;;;;;;;10.00;99.90;;;;;;5139055;27;19957;-37
2023/03/31 06:10:28;;;;;;;;;;;10.00;99.90;;;;;;5116638;27;19930;-38
2023/03/31 06:12:54;;;;;;;;;;;10.00;99.90;;;;;;5146154;27;19968;-37
2023/03/31 06:15:22;;;;;;;;;;;10.00;99.90;;;;;;5151677;27;19930;-37
2023/03/31 06:17:49;;;;;;;;;;;10.00;99.90;;;;;;5144009;27;19974;-37
2023/03/31 06:20:16;;;;;;;;;;;10.10;99.90;;;;;;5133895;27;20440;-37
2023/03/31 06:22:42;;;;;;;;;;;10.00;99.90;;;;;;5147380;27;19922;-37
2023/03/31 06:25:09;;;;;;;;;;;10.10;99.90;;;;;;5167470;27;20390;-37
2023/03/31 06:27:36;;;;;;;;;;;10.10;99.90;;;;;;5142290;27;19930;-37
2023/03/31 06:30:02;;;;;;;;;;;10.00;99.90;;;;;;5124361;27;20029;-37
2023/03/31 06:32:30;;;;;;;;;;;10.10;99.90;;;;;;5140594;27;19987;-37
2023/03/31 06:34:57;;;;;;;;;;;10.10;99.90;;;;;;5143961;27;19927;-37
2023/03/31 06:37:24;;;;;;;;;;;10.00;99.90;;;;;;5148129;27;19923;-37
2023/03/31 06:39:50;;;;;;;;;;;10.10;99.90;;;;;;5145459;27;20117;-37
2023/03/31 06:42:17;;;;;;;;;;;10.10;99.90;;;;;;5129973;27;19935;-38
2023/03/31 06:44:44;;;;;;;;;;;10.10;99.90;;;;;;5156088;27;19970;-37
2023/03/31 06:47:10;;;;;;;;;;;10.10;99.90;;;;;;5121497;27;19993;-38
2023/03/31 06:49:38;;;;;;;;;;;10.10;99.90;;;;;;5126726;27;19975;-37
2023/03/31 06:52:05;;;;;;;;;;;10.10;99.90;;;;;;5147532;27;19927;-38
2023/03/31 06:54:32;;;;;;;;;;;10.10;99.90;;;;;;5155058;27;20508;-37
2023/03/31 06:56:58;;;;;;;;;;;10.10;99.90;;;;;;5151006;27;19927;-38
2023/03/31 06:59:25;;;;;;;;;;;10.10;99.90;;;;;;5143287;27;19923;-38
2023/03/31 07:01:52;;;;;;;;;;;10.10;99.90;;;;;;5132425;27;19984;-37
2023/03/31 07:04:18;;;;;;;;;;;10.10;99.90;;;;;;5150987;27;19930;-38
2023/03/31 07:06:47;;;;;;;;;;;10.10;99.90;;;;;;5150629;27;19975;-36
2023/03/31 07:09:13;;;;;;;;;;;10.10;99.90;;;;;;5141491;27;19982;-36
2023/03/31 07:11:40;;;;;;;;;;;10.10;99.90;;;;;;5126245;27;19923;-36
2023/03/31 07:14:06;;;;;;;;;;;10.10;99.90;;;;;;5119254;27;19943;-37
2023/03/31 07:16:35;;;;;;;;;;;10.10;99.90;;;;;;5145753;27;19923;-38
2023/03/31 07:19:03;;;;;;;;;;;10.10;99.90;;;;;;5148673;27;19929;-37
2023/03/31 07:21:29;;;;;;;;;;;10.20;99.90;;;;;;5131359;27;20378;-38
2023/03/31 07:23:58;;;;;;;;;;;10.10;99.90;;;;;;5150098;27;19923;-38
2023/03/31 07:26:24;;;;;;;;;;;10.20;99.90;;;;;;5166022;27;19927;-38
2023/03/31 07:28:51;;;;;;;;;;;10.20;99.90;;;;;;5149663;27;20339;-38
2023/03/31 07:31:18;;;;;;;;;;;10.20;99.90;;;;;;5121239;27;19927;-37
2023/03/31 07:33:45;;;;;;;;;;;10.20;99.90;;;;;;5140260;27;19939;-38
2023/03/31 07:36:11;;;;;;;;;;;10.20;99.90;;;;;;5166164;27;20485;-37
2023/03/31 07:38:38;;;;;;;;;;;10.20;99.90;;;;;;5148670;27;19927;-37
2023/03/31 07:41:06;;;;;;;;;;;10.30;99.90;;;;;;5132032;27;19983;-38
2023/03/31 07:43:33;;;;;;;;;;;10.30;99.90;;;;;;5130567;27;19975;-38
2023/03/31 07:45:59;;;;;;;;;;;10.30;99.90;;;;;;5142138;27;19930;-38
2023/03/31 07:48:27;;;;;;;;;;;10.30;99.90;;;;;;5144742;27;20045;-39
2023/03/31 07:50:54;;;;;;;;;;;10.30;99.90;;;;;;5146336;27;20413;-39
2023/03/31 07:53:20;;;;;;;;;;;10.30;99.90;;;;;;5143024;27;20340;-39
2023/03/31 07:55:47;;;;;;;;;;;10.30;99.90;;;;;;5143058;27;20320;-39
2023/03/31 07:58:15;;;;;;;;;;;10.40;99.90;;;;;;5167921;27;19923;-38
2023/03/31 08:00:42;;;;;;;;;;;10.40;99.90;;;;;;5154713;27;20586;-38
2023/03/31 08:03:08;;;;;;;;;;;10.40;99.90;;;;;;5141259;27;20031;-39
2023/03/31 08:05:35;;;;;;;;;;;10.40;99.90;;;;;;5143530;27;19927;-38
2023/03/31 08:08:02;;;;;;;;;;;10.50;99.90;;;;;;5147712;27;19966;-38
2023/03/31 08:10:29;;;;;;;;;;;10.50;99.90;;;;;;5150950;27;19926;-39
2023/03/31 08:12:55;;;;;;;;;;;10.50;99.90;;;;;;5139006;27;20459;-39
2023/03/31 08:15:24;;;;;;;;;;;10.60;99.90;;;;;;5141769;27;19991;-39
2023/03/31 08:17:51;;;;;;;;;;;10.60;99.90;;;;;;5124694;27;19970;-39
2023/03/31 08:20:17;;;;;;;;;;;10.60;99.90;;;;;;5144313;27;19924;-36
2023/03/31 08:22:44;;;;;;;;;;;10.60;99.90;;;;;;5144478;27;20441;-37
2023/03/31 08:25:11;;;;;;;;;;;10.60;99.90;;;;;;5154759;27;19927;-44
2023/03/31 08:27:38;;;;;;;;;;;10.70;99.90;;;;;;5144146;27;19974;-38
2023/03/31 08:30:05;;;;;;;;;;;10.70;99.90;;;;;;5152785;27;20266;-38
2023/03/31 08:32:33;;;;;;;;;;;10.70;99.90;;;;;;5132407;27;19927;-38
2023/03/31 08:35:00;;;;;;;;;;;10.70;99.90;;;;;;5149297;27;19946;-38
2023/03/31 08:37:27;;;;;;;;;;;10.70;99.90;;;;;;5151983;27;19923;-39
2023/03/31 08:39:54;;;;;;;;;;;10.80;99.90;;;;;;5158820;27;19954;-38
2023/03/31 08:42:22;;;;;;;;;;;10.80;99.90;;;;;;5130820;27;19934;-38
2023/03/31 08:44:51;;;;;;;;;;;10.80;99.90;;;;;;5144769;27;19984;-38
2023/03/31 08:47:19;;;;;;;;;;;10.80;99.90;;;;;;5122536;27;19984;-38
2023/03/31 08:49:47;;;;;;;;;;;10.80;99.90;;;;;;5139754;27;20366;-38
2023/03/31 08:52:15;;;;;;;;;;;10.80;99.90;;;;;;5120125;27;19935;-38
2023/03/31 08:54:42;;;;;;;;;;;11.00;99.90;;;;;;5125541;27;19927;-38
2023/03/31 08:57:12;;;;;;;;;;;10.90;99.90;;;;;;5147389;27;19923;-38
2023/03/31 08:59:39;;;;;;;;;;;10.90;99.90;;;;;;5137848;27;19923;-38
2023/03/31 09:02:10;;;;;;;;;;;11.00;99.90;;;;;;5152133;27;19971;-38
2023/03/31 09:04:50;;;;;;;;;;;11.00;99.90;;;;;;5149055;27;19923;-39
2023/03/31 09:07:19;;;;;;;;;;;11.00;99.90;;;;;;5145297;27;20360;-38
2023/03/31 09:09:47;;;;;;;;;;;11.00;99.90;;;;;;5130131;27;19927;-38
2023/03/31 09:12:14;;;;;;;;;;;11.10;99.90;;;;;;5150182;27;19927;-37
2023/03/31 09:14:41;;;;;;;;;;;11.10;99.90;;;;;;5154509;27;19923;-37
2023/03/31 09:17:13;;;;;;;;;;;11.10;99.90;;;;;;5137817;27;19982;-37
2023/03/31 09:19:40;;;;;;;;;;;11.20;99.90;;;;;;5138820;27;19931;-38
2023/03/31 09:22:11;;;;;;;;;;;11.20;99.90;;;;;;5121491;27;19924;-37
2023/03/31 09:24:40;;;;;;;;;;;11.20;99.90;;;;;;5127121;27;19968;-37
2023/03/31 09:27:07;;;;;;;;;;;11.30;99.90;;;;;;5126664;27;19926;-37
2023/03/31 09:29:39;;;;;;;;;;;11.30;99.90;;;;;;5140136;27;19924;-37
2023/03/31 09:32:09;;;;;;;;;;;11.30;99.90;;;;;;5154449;27;19947;-36
2023/03/31 09:34:36;;;;;;;;;;;11.40;99.90;;;;;;5160269;27;19927;-37
2023/03/31 09:37:04;;;;;;;;;;;11.40;99.90;;;;;;5145368;27;19976;-37
2023/03/31 09:39:32;;;;;;;;;;;11.40;99.90;;;;;;5143002;27;20070;-39
2023/03/31 09:41:59;;;;;;;;;;;11.40;99.90;;;;;;5114957;27;19924;-38
2023/03/31 09:44:26;;;;;;;;;;;11.40;99.90;;;;;;5122233;27;20403;-38
2023/03/31 09:46:53;;;;;;;;;;;11.40;99.90;;;;;;5121063;27;19968;-37
2023/03/31 09:49:20;;;;;;;;;;;11.40;99.90;;;;;;5116669;27;19927;-38
2023/03/31 09:51:48;;;;;;;;;;;11.40;99.90;;;;;;5143915;27;19959;-38
2023/03/31 09:54:16;;;;;;;;;;;11.50;99.90;;;;;;5157208;27;19928;-38
2023/03/31 09:56:47;;;;;;;;;;;11.50;99.90;;;;;;5133206;27;19924;-37
2023/03/31 09:59:15;;;;;;;;;;;11.50;99.90;;;;;;5141618;27;21336;-38
2023/03/31 10:01:44;;;;;;;;;;;11.50;99.90;;;;;;5126158;27;19930;-37
2023/03/31 10:04:12;;;;;;;;;;;11.60;99.90;;;;;;5126007;27;19966;-38
2023/03/31 10:06:39;;;;;;;;;;;11.70;99.90;;;;;;5114803;27;19934;-37
2023/03/31 10:09:06;;;;;;;;;;;11.70;99.90;;;;;;5137902;27;19923;-38
2023/03/31 10:11:32;;;;;;;;;;;11.80;99.90;;;;;;5150751;27;19927;-37
2023/03/31 10:14:01;;;;;;;;;;;11.80;99.90;;;;;;5117362;27;19929;-37
2023/03/31 10:16:29;;;;;;;;;;;11.90;99.90;;;;;;5115782;27;19970;-37
2023/03/31 10:18:57;;;;;;;;;;;11.90;99.90;;;;;;5149181;27;19923;-37
2023/03/31 10:21:24;;;;;;;;;;;12.00;99.90;;;;;;5146277;27;20418;-37
2023/03/31 10:23:51;;;;;;;;;;;12.10;99.90;;;;;;5124099;27;20321;-38
2023/03/31 10:26:18;;;;;;;;;;;12.20;99.90;;;;;;5137392;27;19984;-36
2023/03/31 10:28:45;;;;;;;;;;;12.20;99.90;;;;;;5161446;27;19928;-37
2023/03/31 10:31:14;;;;;;;;;;;12.30;99.90;;;;;;5142003;27;19973;-36
2023/03/31 10:33:41;;;;;;;;;;;12.20;99.90;;;;;;5140041;27;20386;-37
2023/03/31 10:36:08;;;;;;;;;;;12.30;99.90;;;;;;5111861;27;20276;-37
2023/03/31 10:38:35;;;;;;;;;;;12.30;99.90;;;;;;5103451;28;20466;-37
2023/03/31 10:41:02;;;;;;;;;;;12.30;99.90;;;;;;5102850;28;19923;-37
2023/03/31 10:43:29;;;;;;;;;;;12.30;99.90;;;;;;5105590;28;19924;-36
2023/03/31 10:45:56;;;;;;;;;;;12.40;99.90;;;;;;5107823;28;19957;-36
2023/03/31 10:48:28;;;;;;;;;;;12.50;99.90;;;;;;5102575;28;19924;-36
2023/03/31 10:50:55;;;;;;;;;;;12.60;99.90;;;;;;5105612;27;19932;-37
2023/03/31 10:53:21;;;;;;;;;;;12.60;99.90;;;;;;5099958;28;19976;-36
2023/03/31 10:55:52;;;;;;;;;;;12.60;99.90;;;;;;5107422;28;19946;-37
2023/03/31 10:58:22;;;;;;;;;;;12.60;99.90;;;;;;5106248;28;19924;-39
2023/03/31 11:00:57;;;;;;;;;;;12.60;99.90;;;;;;5094406;28;19931;-42
2023/03/31 11:03:34;;;;;;;;;;;12.50;99.90;;;;;;5104724;28;19947;-37
2023/03/31 11:06:03;;;;;;;;;;;12.50;99.90;;;;;;5105785;28;19974;-37
2023/03/31 11:08:33;;;;;;;;;;;12.50;99.90;;;;;;5106293;28;20294;-39
2023/03/31 11:11:03;;;;;;;;;;;12.50;99.90;;;;;;5103568;28;20009;-37
2023/03/31 11:13:32;;;;;;;;;;;12.50;99.90;;;;;;5109033;28;20327;-41
2023/03/31 11:16:00;;;;;;;;;;;12.50;99.90;;;;;;5097465;28;19928;-38
2023/03/31 11:18:41;;;;;;;;;;;12.50;99.90;;;;;;5093975;28;19955;-43
2023/03/31 11:21:11;;;;;;;;;;;12.40;99.90;;;;;;5107238;28;19970;-38
2023/03/31 11:23:40;;;;;;;;;;;12.40;99.90;;;;;;5104465;28;20487;-39
2023/03/31 11:26:08;;;;;;;;;;;12.40;99.90;;;;;;5106383;28;19977;-37
2023/03/31 11:28:37;;;;;;;;;;;12.40;99.90;;;;;;5105404;28;20158;-38
2023/03/31 11:31:07;;;;;;;;;;;12.50;99.90;;;;;;5104018;28;19928;-38
2023/03/31 11:33:47;;;;;;;;;;;12.50;99.90;;;;;;5101022;28;19949;-37
2023/03/31 11:36:17;;;;;;;;;;;12.50;99.90;;;;;;5129605;27;20332;-42
2023/03/31 11:38:47;;;;;;;;;;;12.50;99.90;;;;;;5139048;27;19922;-39
2023/03/31 11:41:14;;;;;;;;;;;12.70;99.90;;;;;;5132165;27;20026;-39
2023/03/31 11:43:42;;;;;;;;;;;12.70;99.90;;;;;;5162640;27;20450;-38
2023/03/31 11:46:11;;;;;;;;;;;12.70;99.90;;;;;;5143155;27;19983;-38
2023/03/31 11:48:39;;;;;;;;;;;12.70;99.90;;;;;;5140668;27;20311;-40
2023/03/31 11:51:07;;;;;;;;;;;12.70;99.90;;;;;;5127137;27;19927;-38
2023/03/31 11:53:34;;;;;;;;;;;12.80;99.90;;;;;;5151112;27;19924;-38
2023/03/31 11:56:01;;;;;;;;;;;12.80;99.90;;;;;;5151740;27;19923;-39
2023/03/31 11:58:29;;;;;;;;;;;12.90;99.90;;;;;;5133504;27;19968;-38
2023/03/31 12:00:57;;;;;;;;;;;12.90;99.90;;;;;;5147692;27;19927;-39
2023/03/31 12:03:24;;;;;;;;;;;13.00;99.90;;;;;;5135011;27;20006;-40
2023/03/31 12:05:51;;;;;;;;;;;13.00;99.90;;;;;;5148767;27;20412;-38
2023/03/31 12:08:22;;;;;;;;;;;13.10;99.90;;;;;;5134976;27;19991;-39
2023/03/31 12:10:51;;;;;;;;;;;13.10;99.90;;;;;;5132553;27;19930;-38
2023/03/31 12:13:28;;;;;;;;;;;13.20;99.90;;;;;;5164365;27;20363;-37
2023/03/31 12:16:00;;;;;;;;;;;13.20;99.90;;;;;;5160137;27;20003;-39
2023/03/31 12:18:28;;;;;;;;;;;13.10;99.90;;;;;;5124544;27;20018;-38
2023/03/31 12:20:56;;;;;;;;;;;13.10;99.90;;;;;;5116155;27;20389;-38
2023/03/31 12:23:24;;;;;;;;;;;13.10;99.90;;;;;;5148192;27;20290;-39
2023/03/31 12:25:52;;;;;;;;;;;13.10;99.90;;;;;;5134108;27;20004;-38
2023/03/31 12:28:18;;;;;;;;;;;13.20;99.90;;;;;;5130452;27;20405;-38
2023/03/31 12:30:45;;;;;;;;;;;13.30;99.90;;;;;;5142387;27;19935;-39
2023/03/31 12:33:14;;;;;;;;;;;13.40;99.90;;;;;;5152490;27;19961;-36
2023/03/31 12:35:43;;;;;;;;;;;13.50;99.90;;;;;;5141914;27;19924;-37
2023/03/31 12:38:15;;;;;;;;;;;13.60;99.90;;;;;;5138891;27;20386;-36
2023/03/31 12:40:46;;;;;;;;;;;13.60;99.90;;;;;;5132988;27;19923;-36
2023/03/31 12:43:18;;;;;;;;;;;13.60;99.90;;;;;;5126029;27;19962;-37
2023/03/31 12:45:47;;;;;;;;;;;13.60;99.90;;;;;;5143816;27;19923;-36
2023/03/31 12:48:32;;;;;;;;;;;13.60;99.90;;;;;;5122623;27;20373;-37
2023/03/31 12:51:02;;;;;;;;;;;13.60;99.90;;;;;;5126179;27;19934;-38
2023/03/31 12:53:31;;;;;;;;;;;13.50;99.90;;;;;;5153165;27;19923;-38
2023/03/31 12:55:59;;;;;;;;;;;13.50;99.90;;;;;;5145618;27;19926;-38
2023/03/31 12:58:36;;;;;;;;;;;13.50;99.90;;;;;;5147997;27;19938;-38
2023/03/31 13:01:04;;;;;;;;;;;13.50;99.90;;;;;;5153152;27;19991;-39
2023/03/31 13:03:42;;;;;;;;;;;13.40;99.90;;;;;;5146404;27;20336;-39
2023/03/31 13:06:09;;;;;;;;;;;13.50;99.90;;;;;;5142625;27;19927;-38
2023/03/31 13:08:55;;;;;;;;;;;13.40;99.90;;;;;;5136590;27;20423;-38
2023/03/31 13:11:23;;;;;;;;;;;13.50;99.90;;;;;;5132478;27;20006;-39
2023/03/31 13:13:58;;;;;;;;;;;13.50;99.90;;;;;;5124785;27;20037;-37
2023/03/31 13:16:24;;;;;;;;;;;13.50;99.90;;;;;;5134498;27;19923;-37
2023/03/31 13:18:51;;;;;;;;;;;13.60;99.90;;;;;;5153625;27;19923;-38
2023/03/31 13:21:18;;;;;;;;;;;13.60;99.90;;;;;;5140265;27;20368;-38
2023/03/31 13:23:45;;;;;;;;;;;13.60;99.90;;;;;;5146627;27;20328;-37
2023/03/31 13:26:26;;;;;;;;;;;13.50;99.90;;;;;;5130425;27;19923;-37
2023/03/31 13:29:08;;;;;;;;;;;13.50;99.90;;;;;;5120277;27;20135;-36
2023/03/31 13:31:50;;;;;;;;;;;13.50;99.90;;;;;;5140320;27;19934;-37
2023/03/31 13:34:18;;;;;;;;;;;13.40;99.90;;;;;;5145548;27;19923;-38
2023/03/31 13:36:49;;;;;;;;;;;13.20;99.90;;;;;;5128586;27;19923;-38
2023/03/31 13:39:25;;;;;;;;;;;13.10;99.90;;;;;;5125806;27;20107;-37
2023/03/31 13:41:53;;;;;;;;;;;13.10;99.90;;;;;;5143072;27;20010;-39
2023/03/31 13:44:29;;;;;;;;;;;13.00;99.90;;;;;;5148159;27;19941;-41
2023/03/31 13:47:00;;;;;;;;;;;13.00;99.90;;;;;;5139726;27;20275;-37
2023/03/31 13:49:41;;;;;;;;;;;13.00;99.90;;;;;;5136461;27;19961;-38
2023/03/31 13:52:09;;;;;;;;;;;13.00;99.90;;;;;;5148011;27;20355;-39
2023/03/31 13:54:43;;;;;;;;;;;13.00;99.90;;;;;;5144024;27;19923;-39
2023/03/31 13:57:31;;;;;;;;;;;13.00;99.90;;;;;;5135138;27;19923;-41
2023/03/31 14:00:16;;;;;;;;;;;13.10;99.90;;;;;;5126562;27;20018;-38
2023/03/31 14:02:46;;;;;;;;;;;13.20;99.90;;;;;;5145257;27;20011;-37
2023/03/31 14:05:27;;;;;;;;;;;13.20;99.90;;;;;;5134880;27;19945;-37
2023/03/31 14:07:56;;;;;;;;;;;13.30;99.90;;;;;;5127265;27;19976;-36
2023/03/31 14:10:24;;;;;;;;;;;13.30;99.90;;;;;;5138006;27;19923;-37
2023/03/31 14:12:51;;;;;;;;;;;13.40;99.90;;;;;;5133740;27;19981;-37
2023/03/31 14:15:18;;;;;;;;;;;13.50;99.90;;;;;;5129808;27;19977;-36
2023/03/31 14:17:45;;;;;;;;;;;13.50;99.90;;;;;;5146815;27;19970;-36
2023/03/31 14:20:26;;;;;;;;;;;13.60;99.90;;;;;;5139332;27;19976;-37
2023/03/31 14:22:55;;;;;;;;;;;13.60;99.90;;;;;;5129658;27;20398;-36
2023/03/31 14:25:26;;;;;;;;;;;13.60;99.90;;;;;;5122111;27;20378;-35
2023/03/31 14:27:57;;;;;;;;;;;13.60;99.90;;;;;;5147791;27;19934;-37